createdAt,value
2022-08-31T00:01:01.151Z,101320.22
2022-08-31T00:04:04.677Z,101312.69
2022-08-31T00:07:08.859Z,101312.31
2022-08-31T00:10:14.999Z,101314.28
2022-08-31T00:13:18.361Z,101312.94
2022-08-31T00:16:21.076Z,101313.47
2022-08-31T00:19:23.696Z,101321.47
2022-08-31T00:22:27.613Z,101312.03
2022-08-31T00:25:30.868Z,101319.63
2022-08-31T00:28:33.383Z,101326.09
2022-08-31T00:31:35.917Z,101321.59
2022-08-31T00:34:38.447Z,101315.03
2022-08-31T00:37:42.233Z,101330.38
2022-08-31T00:40:46.797Z,101330.19
2022-08-31T00:43:52.249Z,101319.00
2022-08-31T00:46:56.723Z,101321.41
2022-08-31T00:50:00.421Z,101337.34
2022-08-31T00:53:04.217Z,101343.97
2022-08-31T00:56:06.841Z,101334.31
2022-08-31T00:59:09.413Z,101343.06
2022-08-31T01:02:12.011Z,101339.78
2022-08-31T01:05:15.298Z,101336.50
2022-08-31T01:08:19.845Z,101343.78
2022-08-31T01:11:34.490Z,101341.13
2022-08-31T01:14:39.205Z,101344.03
2022-08-31T01:17:44.047Z,101343.25
2022-08-31T01:21:09.854Z,101353.75
2022-08-31T01:24:15.423Z,101342.56
2022-08-31T01:27:24.035Z,101345.72
2022-08-31T01:30:27.535Z,101354.72
2022-08-31T01:33:30.915Z,101339.31
2022-08-31T01:36:35.442Z,101350.44
2022-08-31T01:39:39.265Z,101353.97
2022-08-31T01:42:41.718Z,101348.31
2022-08-31T01:45:44.620Z,101347.88
2022-08-31T01:48:49.009Z,101357.84
2022-08-31T01:51:53.742Z,101364.22
2022-08-31T01:54:57.597Z,101364.25
2022-08-31T01:58:01.354Z,101371.50
2022-08-31T02:01:10.628Z,101378.34
2022-08-31T02:04:30.704Z,101380.09
2022-08-31T02:07:33.231Z,101392.72
2022-08-31T02:10:38.058Z,101383.94
2022-08-31T02:13:41.062Z,101386.03
2022-08-31T02:16:43.844Z,101389.53
2022-08-31T02:19:46.498Z,101399.44
2022-08-31T02:22:49.529Z,101393.78
2022-08-31T02:25:53.372Z,101389.75
2022-08-31T02:28:55.952Z,101399.09
2022-08-31T02:31:59.106Z,101398.66
2022-08-31T02:35:01.577Z,101394.53
2022-08-31T02:38:04.057Z,101401.19
2022-08-31T02:41:08.978Z,101407.03
2022-08-31T02:44:11.559Z,101409.63
2022-08-31T02:47:14.107Z,101411.25
2022-08-31T02:50:16.675Z,101421.03
2022-08-31T02:53:21.155Z,101409.91
2022-08-31T02:56:25.880Z,101419.03
2022-08-31T02:59:28.657Z,101440.47
2022-08-31T03:02:31.652Z,101426.63
2022-08-31T03:05:34.743Z,101430.22
2022-08-31T03:08:39.442Z,101422.47
2022-08-31T03:11:43.317Z,101420.06
2022-08-31T03:14:45.797Z,101423.41
2022-08-31T03:17:49.125Z,101413.78
2022-08-31T03:20:51.688Z,101424.31
2022-08-31T03:23:54.154Z,101413.00
2022-08-31T03:26:57.949Z,101424.25
2022-08-31T03:30:00.685Z,101418.94
2022-08-31T03:33:03.581Z,101429.53
2022-08-31T03:36:06.309Z,101440.97
2022-08-31T03:39:08.792Z,101439.94
2022-08-31T03:42:13.220Z,101449.38
2022-08-31T03:45:15.678Z,101446.53
2022-08-31T03:48:18.279Z,101452.06
2022-08-31T03:51:21.094Z,101451.25
2022-08-31T03:54:23.873Z,101456.56
2022-08-31T03:57:27.737Z,101469.97
2022-08-31T04:00:31.215Z,101464.91
2022-08-31T04:03:33.875Z,101471.28
2022-08-31T04:06:36.490Z,101480.94
2022-08-31T04:09:38.958Z,101471.22
2022-08-31T04:12:42.773Z,101460.94
2022-08-31T04:15:46.646Z,101473.78
2022-08-31T04:18:49.242Z,101487.97
2022-08-31T04:21:51.711Z,101499.97
2022-08-31T04:24:54.273Z,101498.81
2022-08-31T04:27:58.484Z,101510.78
2022-08-31T04:31:08.899Z,101517.53
2022-08-31T04:34:11.662Z,101512.91
2022-08-31T04:37:14.713Z,101527.53
2022-08-31T04:40:20.229Z,101547.72
2022-08-31T04:43:30.754Z,101533.53
2022-08-31T04:46:34.539Z,101536.97
2022-08-31T04:49:37.098Z,101522.06
2022-08-31T04:52:39.650Z,101505.31
2022-08-31T04:55:43.979Z,101517.66
2022-08-31T04:58:50.807Z,101520.53
2022-08-31T05:01:53.574Z,101522.06
2022-08-31T05:04:56.138Z,101530.03
2022-08-31T05:07:58.639Z,101535.66
2022-08-31T05:11:01.111Z,101538.00
2022-08-31T05:14:07.236Z,101541.09
2022-08-31T05:17:15.052Z,101536.97
2022-08-31T05:20:18.441Z,101528.25
2022-08-31T05:23:21.021Z,101518.88
2022-08-31T05:26:26.766Z,101533.28
2022-08-31T05:29:30.713Z,101539.81
2022-08-31T05:32:33.209Z,101533.91
2022-08-31T05:35:37.560Z,101539.13
2022-08-31T05:38:40.755Z,101551.38
2022-08-31T05:41:45.796Z,101561.13
2022-08-31T05:44:49.586Z,101562.63
2022-08-31T05:47:52.141Z,101548.56
2022-08-31T05:50:55.114Z,101543.28
2022-08-31T05:54:00.039Z,101537.13
2022-08-31T05:57:03.433Z,101531.72
2022-08-31T06:00:09.235Z,101544.03
2022-08-31T06:03:12.007Z,101528.50
2022-08-31T06:06:16.872Z,101529.03
2022-08-31T06:09:19.341Z,101521.19
2022-08-31T06:12:25.535Z,101512.84
2022-08-31T06:15:29.539Z,101509.22
2022-08-31T06:18:32.028Z,101510.28
2022-08-31T06:21:37.788Z,101516.63
2022-08-31T06:24:41.103Z,101511.13
2022-08-31T06:27:44.049Z,101518.16
2022-08-31T06:30:55.394Z,101517.38
2022-08-31T06:33:58.709Z,101528.94
2022-08-31T06:37:01.423Z,101533.19
2022-08-31T06:40:04.858Z,101539.94
2022-08-31T06:43:07.856Z,101537.19
2022-08-31T06:46:12.736Z,101536.69
2022-08-31T06:49:15.321Z,101532.94
2022-08-31T06:52:17.913Z,101547.16
2022-08-31T06:55:20.572Z,101551.97
2022-08-31T06:58:23.601Z,101543.25
2022-08-31T07:01:34.771Z,101548.88
2022-08-31T07:04:40.158Z,101548.16
2022-08-31T07:07:42.626Z,101549.94
2022-08-31T07:10:45.293Z,101552.69
2022-08-31T07:13:48.950Z,101546.09
2022-08-31T07:16:54.539Z,101552.72
2022-08-31T07:19:57.030Z,101555.72
2022-08-31T07:22:59.518Z,101563.06
2022-08-31T07:26:05.474Z,101570.91
2022-08-31T07:29:10.033Z,101569.38
2022-08-31T07:32:17.311Z,101569.63
2022-08-31T07:35:20.196Z,101573.50
2022-08-31T07:38:40.238Z,101582.19
2022-08-31T07:41:59.978Z,101573.41
2022-08-31T07:45:05.470Z,101581.94
2022-08-31T07:48:09.775Z,101574.59
2022-08-31T07:51:15.175Z,101579.38
2022-08-31T07:54:20.634Z,101574.81
2022-08-31T07:57:25.803Z,101569.31
2022-08-31T08:00:29.878Z,101586.53
2022-08-31T08:03:33.657Z,101582.84
2022-08-31T08:06:36.402Z,101574.69
2022-08-31T08:09:39.806Z,101585.78
2022-08-31T08:12:43.066Z,101576.53
2022-08-31T08:15:45.792Z,101578.47
2022-08-31T08:18:49.695Z,101587.34
2022-08-31T08:21:52.207Z,101583.03
2022-08-31T08:24:55.728Z,101583.34
2022-08-31T08:27:58.479Z,101588.66
2022-08-31T08:31:01.700Z,101565.47
2022-08-31T08:34:05.620Z,101577.38
2022-08-31T08:37:08.824Z,101580.84
2022-08-31T08:40:26.779Z,101587.41
2022-08-31T08:43:32.054Z,101590.16
2022-08-31T08:46:40.190Z,101595.22
2022-08-31T08:49:53.972Z,101588.53
2022-08-31T08:53:03.673Z,101593.75
2022-08-31T08:56:29.612Z,101594.06
2022-08-31T08:59:29.566Z,101575.66
2022-08-31T09:02:38.024Z,101572.38
2022-08-31T09:05:56.592Z,101581.47
2022-08-31T09:09:18.076Z,101587.38
2022-08-31T09:12:30.900Z,101585.66
2022-08-31T09:15:49.764Z,101585.28
2022-08-31T09:18:57.181Z,101578.69
2022-08-31T09:22:02.995Z,101575.53
2022-08-31T09:25:06.151Z,101560.88
2022-08-31T09:28:14.910Z,101569.34
2022-08-31T09:31:34.635Z,101562.09
2022-08-31T09:34:41.027Z,101575.13
2022-08-31T09:37:57.968Z,101581.75
2022-08-31T09:41:02.081Z,101567.25
2022-08-31T09:44:32.371Z,101560.44
2022-08-31T09:47:48.987Z,101544.00
2022-08-31T09:51:02.856Z,101567.47
2022-08-31T09:54:35.473Z,101558.03
2022-08-31T09:57:54.100Z,101560.44
2022-08-31T10:00:57.443Z,101575.00
2022-08-31T10:04:18.671Z,101572.16
2022-08-31T10:07:37.976Z,101566.16
2022-08-31T10:10:44.869Z,101576.38
2022-08-31T10:13:57.295Z,101558.63
2022-08-31T10:17:05.546Z,101581.25
2022-08-31T10:20:16.486Z,101568.09
2022-08-31T10:23:27.099Z,101546.25
2022-08-31T10:26:37.634Z,101533.72
2022-08-31T10:29:46.083Z,101523.56
2022-08-31T10:32:56.371Z,101520.78
2022-08-31T10:36:01.969Z,101520.94
2022-08-31T10:39:12.614Z,101530.53
2022-08-31T10:42:25.205Z,101545.09
2022-08-31T10:45:33.576Z,101549.94
2022-08-31T10:48:54.396Z,101532.84
2022-08-31T10:52:06.154Z,101518.41
2022-08-31T10:55:19.561Z,101536.00
2022-08-31T10:58:31.703Z,101542.56
2022-08-31T11:01:45.498Z,101545.25
2022-08-31T11:05:03.374Z,101558.31
2022-08-31T11:08:24.524Z,101558.31
2022-08-31T11:11:43.859Z,101547.91
2022-08-31T11:15:09.689Z,101540.97
2022-08-31T11:18:40.271Z,101511.53
2022-08-31T11:22:16.361Z,101501.19
2022-08-31T11:25:37.635Z,101492.16
2022-08-31T11:28:46.021Z,101493.72
2022-08-31T11:31:50.664Z,101503.59
2022-08-31T11:34:56.501Z,101490.41
2022-08-31T11:38:00.574Z,101488.44
2022-08-31T11:41:04.055Z,101504.91
2022-08-31T11:44:08.852Z,101502.81
2022-08-31T11:47:34.665Z,101507.88
2022-08-31T11:51:03.830Z,101509.13
2022-08-31T11:54:12.577Z,101523.97
2022-08-31T11:57:20.443Z,101508.78
2022-08-31T12:00:23.037Z,101514.72
2022-08-31T12:03:44.071Z,101498.84
2022-08-31T12:07:00.290Z,101473.97
2022-08-31T12:10:34.148Z,101459.97
2022-08-31T12:13:48.955Z,101462.50
2022-08-31T12:17:02.068Z,101483.19
2022-08-31T12:20:15.034Z,101487.59
2022-08-31T12:23:37.822Z,101487.47
2022-08-31T12:26:49.958Z,101477.47
2022-08-31T12:29:53.522Z,101476.19
2022-08-31T12:33:02.033Z,101473.09
2022-08-31T12:36:18.871Z,101457.50
2022-08-31T12:39:23.623Z,101447.25
2022-08-31T12:42:26.913Z,101432.31
2022-08-31T12:45:54.708Z,101432.28
2022-08-31T12:49:21.738Z,101417.41
2022-08-31T12:52:43.318Z,101430.09
2022-08-31T12:55:50.538Z,101419.72
2022-08-31T12:59:09.678Z,101423.03
2022-08-31T13:02:13.950Z,101426.84
2022-08-31T13:05:21.946Z,101420.34
2022-08-31T13:08:27.279Z,101431.72
2022-08-31T13:11:39.842Z,101419.19
2022-08-31T13:14:44.796Z,101415.34
2022-08-31T13:17:47.492Z,101400.84
2022-08-31T13:20:56.190Z,101411.56
2022-08-31T13:24:07.530Z,101416.38
2022-08-31T13:27:17.474Z,101409.41
2022-08-31T13:30:25.513Z,101426.44
2022-08-31T13:33:31.441Z,101444.25
2022-08-31T13:36:38.682Z,101447.63
2022-08-31T13:39:46.120Z,101426.84
2022-08-31T13:42:54.362Z,101407.72
2022-08-31T13:46:00.964Z,101392.69
2022-08-31T13:49:06.711Z,101392.28
2022-08-31T13:52:18.470Z,101394.19
2022-08-31T13:55:39.938Z,101391.44
2022-08-31T13:58:42.448Z,101392.06
2022-08-31T14:01:47.829Z,101394.25
2022-08-31T14:05:01.162Z,101388.66
2022-08-31T14:08:08.209Z,101392.91
2022-08-31T14:11:14.898Z,101402.72
2022-08-31T14:14:21.499Z,101394.13
2022-08-31T14:17:28.099Z,101393.78
2022-08-31T14:20:37.066Z,101393.88
2022-08-31T14:23:40.937Z,101391.31
2022-08-31T14:26:45.367Z,101385.06
2022-08-31T14:29:47.849Z,101386.06
2022-08-31T14:32:50.339Z,101377.84
2022-08-31T14:35:55.438Z,101381.00
2022-08-31T14:38:58.646Z,101378.56
2022-08-31T14:42:06.061Z,101384.13
2022-08-31T14:45:18.428Z,101385.06
2022-08-31T14:48:21.192Z,101383.63
2022-08-31T14:51:24.140Z,101386.31
2022-08-31T14:54:28.485Z,101385.63
2022-08-31T14:57:34.521Z,101376.78
2022-08-31T15:00:49.813Z,101387.91
2022-08-31T15:03:55.314Z,101378.75
2022-08-31T15:07:09.570Z,101380.25
2022-08-31T15:10:12.832Z,101372.66
2022-08-31T15:13:16.744Z,101368.84
2022-08-31T15:16:19.270Z,101378.53
2022-08-31T15:19:23.125Z,101374.03
2022-08-31T15:22:26.756Z,101377.44
2022-08-31T15:25:29.369Z,101379.88
2022-08-31T15:28:37.325Z,101377.03
2022-08-31T15:31:41.831Z,101376.97
2022-08-31T15:34:57.697Z,101370.63
2022-08-31T15:38:01.347Z,101372.84
2022-08-31T15:41:04.847Z,101368.94
2022-08-31T15:44:10.382Z,101373.78
2022-08-31T15:47:30.736Z,101376.78
2022-08-31T15:50:35.871Z,101371.34
2022-08-31T15:53:42.797Z,101371.47
2022-08-31T15:56:45.433Z,101373.38
2022-08-31T15:59:50.105Z,101360.78
2022-08-31T16:02:55.232Z,101355.03
2022-08-31T16:05:58.780Z,101350.22
2022-08-31T16:09:02.280Z,101348.56
2022-08-31T16:12:05.406Z,101356.66
2022-08-31T16:15:11.309Z,101352.50
2022-08-31T16:18:15.646Z,101344.59
2022-08-31T16:21:21.891Z,101348.63
2022-08-31T16:24:25.118Z,101345.97
2022-08-31T16:27:27.636Z,101342.66
2022-08-31T16:30:33.276Z,101338.63
2022-08-31T16:33:35.786Z,101332.31
2022-08-31T16:36:38.282Z,101334.13
2022-08-31T16:39:44.040Z,101338.41
2022-08-31T16:42:46.674Z,101330.59
2022-08-31T16:45:50.543Z,101329.13
2022-08-31T16:49:11.226Z,101329.50
2022-08-31T16:52:18.167Z,101324.00
2022-08-31T16:55:21.243Z,101320.47
2022-08-31T16:58:40.999Z,101313.53
2022-08-31T17:01:48.676Z,101314.38
2022-08-31T17:04:53.792Z,101312.31
2022-08-31T17:07:57.075Z,101312.81
2022-08-31T17:11:04.145Z,101315.72
2022-08-31T17:14:08.897Z,101311.09
2022-08-31T17:17:14.307Z,101321.06
2022-08-31T17:20:17.313Z,101325.09
2022-08-31T17:23:20.932Z,101319.31
2022-08-31T17:26:24.353Z,101325.16
2022-08-31T17:29:30.780Z,101328.94
2022-08-31T17:32:44.771Z,101326.25
2022-08-31T17:35:47.813Z,101327.75
2022-08-31T17:38:52.123Z,101326.50
2022-08-31T17:41:55.589Z,101331.69
2022-08-31T17:44:59.154Z,101331.63
2022-08-31T17:48:03.365Z,101332.34
2022-08-31T17:51:09.841Z,101333.16
2022-08-31T17:54:14.855Z,101335.56
2022-08-31T17:57:19.157Z,101330.16
2022-08-31T18:00:21.994Z,101325.78
2022-08-31T18:03:26.302Z,101333.84
2022-08-31T18:06:29.872Z,101333.47
2022-08-31T18:09:35.302Z,101335.47
2022-08-31T18:12:41.872Z,101332.28
2022-08-31T18:15:44.959Z,101343.81
2022-08-31T18:18:50.605Z,101354.72
2022-08-31T18:21:54.031Z,101347.53
2022-08-31T18:24:58.133Z,101355.44
2022-08-31T18:28:03.327Z,101350.13
2022-08-31T18:31:07.596Z,101359.50
2022-08-31T18:34:14.958Z,101358.41
2022-08-31T18:37:22.170Z,101370.16
2022-08-31T18:40:43.401Z,101362.47
2022-08-31T18:44:03.610Z,101367.25
2022-08-31T18:47:09.056Z,101367.47
2022-08-31T18:50:12.887Z,101366.63
2022-08-31T18:53:27.833Z,101368.81
2022-08-31T18:56:33.351Z,101376.47
2022-08-31T18:59:35.883Z,101369.50
2022-08-31T19:02:41.397Z,101374.00
2022-08-31T19:05:45.226Z,101364.69
2022-08-31T19:08:48.404Z,101366.69
2022-08-31T19:11:51.578Z,101370.63
2022-08-31T19:14:55.449Z,101368.78
2022-08-31T19:17:58.162Z,101368.69
2022-08-31T19:21:15.621Z,101371.53
2022-08-31T19:24:19.326Z,101373.66
2022-08-31T19:27:21.870Z,101377.28
2022-08-31T19:30:28.081Z,101377.13
2022-08-31T19:33:33.373Z,101372.88
2022-08-31T19:36:38.856Z,101379.38
2022-08-31T19:39:45.705Z,101374.84
2022-08-31T19:46:14.403Z,101370.31
2022-08-31T19:49:17.201Z,101372.00
2022-08-31T19:52:21.109Z,101372.63
2022-08-31T19:55:23.640Z,101370.91
2022-08-31T19:58:26.583Z,101372.28
2022-08-31T20:01:33.537Z,101381.47
2022-08-31T20:04:36.886Z,101373.28
2022-08-31T20:07:41.469Z,101376.84
2022-08-31T20:10:46.582Z,101381.94
2022-08-31T20:13:49.232Z,101390.34
2022-08-31T20:16:52.472Z,101389.97
2022-08-31T20:19:55.032Z,101389.69
2022-08-31T20:22:58.912Z,101384.03
2022-08-31T20:26:04.394Z,101382.88
2022-08-31T20:29:10.400Z,101376.63
2022-08-31T20:32:12.905Z,101389.63
2022-08-31T20:35:15.565Z,101392.81
2022-08-31T20:38:20.226Z,101384.94
2022-08-31T20:41:22.755Z,101390.06
2022-08-31T20:44:28.281Z,101397.13
2022-08-31T20:47:48.110Z,101391.06
2022-08-31T20:50:50.828Z,101390.84
2022-08-31T20:53:54.653Z,101384.44
2022-08-31T20:56:58.041Z,101386.34
2022-08-31T21:00:05.429Z,101380.97
2022-08-31T21:03:08.072Z,101375.44
2022-08-31T21:06:13.000Z,101375.81
2022-08-31T21:09:16.823Z,101387.59
2022-08-31T21:12:21.028Z,101384.31
2022-08-31T21:15:25.947Z,101389.94
2022-08-31T21:18:29.565Z,101394.09
2022-08-31T21:21:32.153Z,101398.88
2022-08-31T21:24:39.161Z,101399.94
2022-08-31T21:27:41.882Z,101398.34
2022-08-31T21:30:46.718Z,101398.34
2022-08-31T21:33:49.324Z,101392.50
2022-08-31T21:36:52.291Z,101397.41
2022-08-31T21:39:58.052Z,101393.53
2022-08-31T21:43:02.063Z,101399.94
2022-08-31T21:46:07.289Z,101403.28
2022-08-31T21:49:10.740Z,101398.22
2022-08-31T21:52:13.423Z,101399.28
2022-08-31T21:55:18.252Z,101409.63
2022-08-31T21:58:20.826Z,101408.44
2022-08-31T22:01:23.904Z,101404.66
2022-08-31T22:04:27.188Z,101407.88
2022-08-31T22:07:29.673Z,101403.81
2022-08-31T22:10:39.105Z,101406.84
2022-08-31T22:13:43.856Z,101409.00
2022-08-31T22:16:48.136Z,101410.72
2022-08-31T22:19:53.359Z,101410.34
2022-08-31T22:22:55.904Z,101411.06
2022-08-31T22:25:59.832Z,101413.84
2022-08-31T22:29:02.375Z,101408.06
2022-08-31T22:32:10.624Z,101406.56
2022-08-31T22:35:13.673Z,101407.06
2022-08-31T22:38:18.953Z,101409.97
2022-08-31T22:41:23.055Z,101406.75
2022-08-31T22:44:28.354Z,101411.47
2022-08-31T22:47:30.825Z,101407.53
2022-08-31T22:50:35.321Z,101411.31
2022-08-31T22:53:38.306Z,101408.56
2022-08-31T22:56:42.139Z,101420.75
2022-08-31T22:59:44.627Z,101407.59
2022-08-31T23:02:47.151Z,101409.63
2022-08-31T23:05:51.965Z,101398.81
2022-08-31T23:08:57.472Z,101400.09
2022-08-31T23:12:03.882Z,101401.22
2022-08-31T23:15:10.006Z,101403.34
2022-08-31T23:18:13.406Z,101403.66
2022-08-31T23:21:17.977Z,101400.50
2022-08-31T23:24:23.425Z,101384.94
2022-08-31T23:27:27.288Z,101392.22
2022-08-31T23:30:29.785Z,101398.03
2022-08-31T23:33:32.258Z,101396.34
2022-08-31T23:36:34.744Z,101385.84
2022-08-31T23:39:38.871Z,101388.63
2022-08-31T23:42:42.943Z,101386.44
2022-08-31T23:45:45.464Z,101383.53
2022-08-31T23:48:48.298Z,101387.34
2022-08-31T23:51:50.898Z,101382.28
2022-08-31T23:54:57.695Z,101391.31
2022-08-31T23:58:02.369Z,101390.34
